sensor_id;sensor_type;location;lat;lon;timestamp;pressure;altitude;pressure_sealevel;temperature;humidity
46756;BME280;32506;52.826;-1.192;2023-04-01T00:00:19;99339.00;;;10.17;64.35
46756;BME280;32506;52.826;-1.192;2023-04-01T00:02:44;99341.91;;;10.15;64.31
46756;BME280;32506;52.826;-1.192;2023-04-01T00:05:10;99341.09;;;10.15;64.45
46756;BME280;32506;52.826;-1.192;2023-04-01T00:07:37;99344.78;;;10.14;64.22
46756;BME280;32506;52.826;-1.192;2023-04-01T00:10:07;99351.19;;;10.13;64.30
46756;BME280;32506;52.826;-1.192;2023-04-01T00:12:34;99345.28;;;10.11;64.21
46756;BME280;32506;52.826;-1.192;2023-04-01T00:15:00;99350.88;;;10.09;64.36
46756;BME280;32506;52.826;-1.192;2023-04-01T00:17:25;99353.78;;;10.07;64.08
46756;BME280;32506;52.826;-1.192;2023-04-01T00:19:51;99353.78;;;10.07;64.04
46756;BME280;32506;52.826;-1.192;2023-04-01T00:22:16;99362.81;;;10.06;64.26
46756;BME280;32506;52.826;-1.192;2023-04-01T00:24:42;99367.63;;;10.04;64.16
46756;BME280;32506;52.826;-1.192;2023-04-01T00:27:07;99369.44;;;10.04;64.41
46756;BME280;32506;52.826;-1.192;2023-04-01T00:29:33;99368.06;;;10.01;64.40
46756;BME280;32506;52.826;-1.192;2023-04-01T00:32:00;99370.75;;;10.01;64.18
46756;BME280;32506;52.826;-1.192;2023-04-01T00:34:25;99378.19;;;9.99;64.16
46756;BME280;32506;52.826;-1.192;2023-04-01T00:36:51;99381.09;;;9.98;64.32
46756;BME280;32506;52.826;-1.192;2023-04-01T00:39:18;99382.94;;;9.97;64.51
46756;BME280;32506;52.826;-1.192;2023-04-01T00:41:43;99383.97;;;9.96;64.31
46756;BME280;32506;52.826;-1.192;2023-04-01T00:44:23;99386.91;;;9.95;64.43
46756;BME280;32506;52.826;-1.192;2023-04-01T00:46:49;99386.56;;;9.91;64.30
46756;BME280;32506;52.826;-1.192;2023-04-01T00:49:17;99386.56;;;9.91;64.18
46756;BME280;32506;52.826;-1.192;2023-04-01T00:51:45;99393.75;;;9.90;64.27
46756;BME280;32506;52.826;-1.192;2023-04-01T00:54:11;99401.19;;;9.88;64.28
46756;BME280;32506;52.826;-1.192;2023-04-01T00:56:55;99400.38;;;9.88;64.20
46756;BME280;32506;52.826;-1.192;2023-04-01T00:59:26;99397.16;;;9.86;64.32
46756;BME280;32506;52.826;-1.192;2023-04-01T01:01:53;99401.91;;;9.84;64.37
46756;BME280;32506;52.826;-1.192;2023-04-01T01:04:26;99402.13;;;9.82;64.24
46756;BME280;32506;52.826;-1.192;2023-04-01T01:10:03;99410.38;;;9.81;64.35
46756;BME280;32506;52.826;-1.192;2023-04-01T01:23:50;99425.13;;;9.71;64.33
46756;BME280;32506;52.826;-1.192;2023-04-01T01:32:39;99439.41;;;9.65;64.23
46756;BME280;32506;52.826;-1.192;2023-04-01T01:37:43;99447.66;;;9.64;64.32
46756;BME280;32506;52.826;-1.192;2023-04-01T01:40:11;99447.09;;;9.62;64.10
46756;BME280;32506;52.826;-1.192;2023-04-01T01:42:40;99456.13;;;9.61;64.14
46756;BME280;32506;52.826;-1.192;2023-04-01T01:45:08;99451.03;;;9.59;64.19
46756;BME280;32506;52.826;-1.192;2023-04-01T01:47:35;99451.03;;;9.59;64.29
46756;BME280;32506;52.826;-1.192;2023-04-01T01:50:02;99461.09;;;9.57;64.29
46756;BME280;32506;52.826;-1.192;2023-04-01T01:52:30;99460.31;;;9.56;64.27
46756;BME280;32506;52.826;-1.192;2023-04-01T01:54:57;99467.72;;;9.54;64.33
46756;BME280;32506;52.826;-1.192;2023-04-01T01:57:34;99463.22;;;9.55;64.38
46756;BME280;32506;52.826;-1.192;2023-04-01T02:00:12;99464.50;;;9.52;64.14
46756;BME280;32506;52.826;-1.192;2023-04-01T02:02:45;99463.66;;;9.52;64.35
46756;BME280;32506;52.826;-1.192;2023-04-01T02:05:15;99477.00;;;9.52;64.05
46756;BME280;32506;52.826;-1.192;2023-04-01T02:07:46;99480.13;;;9.49;64.31
46756;BME280;32506;52.826;-1.192;2023-04-01T02:10:14;99475.03;;;9.47;64.03
46756;BME280;32506;52.826;-1.192;2023-04-01T02:12:41;99487.56;;;9.47;64.37
46756;BME280;32506;52.826;-1.192;2023-04-01T02:15:12;99487.78;;;9.45;64.28
46756;BME280;32506;52.826;-1.192;2023-04-01T02:17:45;99491.50;;;9.44;64.11
46756;BME280;32506;52.826;-1.192;2023-04-01T02:20:13;99496.84;;;9.44;64.25
46756;BME280;32506;52.826;-1.192;2023-04-01T02:22:44;99494.63;;;9.41;64.26
46756;BME280;32506;52.826;-1.192;2023-04-01T02:25:18;99498.13;;;9.42;64.30
46756;BME280;32506;52.826;-1.192;2023-04-01T02:27:46;99502.84;;;9.39;64.23
46756;BME280;32506;52.826;-1.192;2023-04-01T02:30:14;99504.97;;;9.37;64.43
46756;BME280;32506;52.826;-1.192;2023-04-01T02:32:40;99512.97;;;9.37;64.14
46756;BME280;32506;52.826;-1.192;2023-04-01T02:35:10;99513.16;;;9.36;64.27
46756;BME280;32506;52.826;-1.192;2023-04-01T02:37:38;99516.06;;;9.34;64.05
46756;BME280;32506;52.826;-1.192;2023-04-01T02:40:05;99509.13;;;9.33;64.00
46756;BME280;32506;52.826;-1.192;2023-04-01T02:42:35;99512.59;;;9.34;64.34
46756;BME280;32506;52.826;-1.192;2023-04-01T02:45:01;99518.97;;;9.33;64.28
46756;BME280;32506;52.826;-1.192;2023-04-01T02:47:26;99519.19;;;9.31;64.20
46756;BME280;32506;52.826;-1.192;2023-04-01T02:49:52;99524.78;;;9.30;64.28
46756;BME280;32506;52.826;-1.192;2023-04-01T02:52:26;99526.59;;;9.29;64.24
46756;BME280;32506;52.826;-1.192;2023-04-01T02:54:52;99519.66;;;9.28;64.19
46756;BME280;32506;52.826;-1.192;2023-04-01T02:57:17;99526.03;;;9.27;64.23
46756;BME280;32506;52.826;-1.192;2023-04-01T02:59:43;99532.41;;;9.26;64.44
46756;BME280;32506;52.826;-1.192;2023-04-01T03:02:08;99527.31;;;9.24;64.36
46756;BME280;32506;52.826;-1.192;2023-04-01T03:04:34;99527.31;;;9.24;64.55
46756;BME280;32506;52.826;-1.192;2023-04-01T03:06:59;99539.25;;;9.22;64.28
46756;BME280;32506;52.826;-1.192;2023-04-01T03:09:25;99542.94;;;9.21;64.23
46756;BME280;32506;52.826;-1.192;2023-04-01T03:11:50;99547.47;;;9.20;64.25
46756;BME280;32506;52.826;-1.192;2023-04-01T03:14:15;99553.59;;;9.21;64.22
46756;BME280;32506;52.826;-1.192;2023-04-01T03:16:41;99551.41;;;9.18;64.14
46756;BME280;32506;52.826;-1.192;2023-04-01T03:19:06;99562.88;;;9.18;64.16
46756;BME280;32506;52.826;-1.192;2023-04-01T03:21:32;99552.44;;;9.17;64.26
46756;BME280;32506;52.826;-1.192;2023-04-01T03:23:57;99554.31;;;9.16;64.23
46756;BME280;32506;52.826;-1.192;2023-04-01T03:26:24;99564.38;;;9.14;64.29
46756;BME280;32506;52.826;-1.192;2023-04-01T03:28:52;99566.22;;;9.14;64.34
46756;BME280;32506;52.826;-1.192;2023-04-01T03:31:17;99571.81;;;9.12;64.23
46756;BME280;32506;52.826;-1.192;2023-04-01T03:33:43;99573.63;;;9.12;64.24
46756;BME280;32506;52.826;-1.192;2023-04-01T03:36:09;99579.19;;;9.10;64.14
46756;BME280;32506;52.826;-1.192;2023-04-01T03:38:36;99573.06;;;9.10;64.21
46756;BME280;32506;52.826;-1.192;2023-04-01T03:41:03;99590.09;;;9.09;64.00
46756;BME280;32506;52.826;-1.192;2023-04-01T03:43:28;99583.13;;;9.07;64.17
46756;BME280;32506;52.826;-1.192;2023-04-01T03:45:54;99586.03;;;9.06;64.21
46756;BME280;32506;52.826;-1.192;2023-04-01T03:48:20;99592.19;;;9.06;64.32
46756;BME280;32506;52.826;-1.192;2023-04-01T03:50:46;99591.59;;;9.04;64.21
46756;BME280;32506;52.826;-1.192;2023-04-01T03:53:12;99588.13;;;9.04;64.39
46756;BME280;32506;52.826;-1.192;2023-04-01T03:55:38;99591.81;;;9.03;64.06
46756;BME280;32506;52.826;-1.192;2023-04-01T03:58:05;99594.72;;;9.01;63.99
46756;BME280;32506;52.826;-1.192;2023-04-01T04:00:30;99592.28;;;9.00;64.13
46756;BME280;32506;52.826;-1.192;2023-04-01T04:02:57;99590.66;;;8.99;64.09
46756;BME280;32506;52.826;-1.192;2023-04-01T04:05:23;99581.03;;;8.98;64.19
46756;BME280;32506;52.826;-1.192;2023-04-01T04:07:49;99575.91;;;8.96;64.40
46756;BME280;32506;52.826;-1.192;2023-04-01T04:10:15;99578.59;;;8.96;64.28
46756;BME280;32506;52.826;-1.192;2023-04-01T04:12:40;99579.63;;;8.95;64.09
46756;BME280;32506;52.826;-1.192;2023-04-01T04:15:06;99590.50;;;8.94;64.21
46756;BME280;32506;52.826;-1.192;2023-04-01T04:17:32;99593.97;;;8.94;64.37
46756;BME280;32506;52.826;-1.192;2023-04-01T04:19:57;99605.09;;;8.91;64.30
46756;BME280;32506;52.826;-1.192;2023-04-01T04:22:23;99608.56;;;8.92;64.13
46756;BME280;32506;52.826;-1.192;2023-04-01T04:24:48;99604.28;;;8.90;64.33
46756;BME280;32506;52.826;-1.192;2023-04-01T04:27:14;99610.88;;;8.88;64.14
46756;BME280;32506;52.826;-1.192;2023-04-01T04:29:40;99609.25;;;8.87;64.36
46756;BME280;32506;52.826;-1.192;2023-04-01T04:32:05;99603.13;;;8.86;64.29
46756;BME280;32506;52.826;-1.192;2023-04-01T04:34:31;99617.47;;;8.85;64.13
46756;BME280;32506;52.826;-1.192;2023-04-01T04:36:56;99608.06;;;8.83;64.17
46756;BME280;32506;52.826;-1.192;2023-04-01T04:39:22;99619.53;;;8.83;64.23
46756;BME280;32506;52.826;-1.192;2023-04-01T04:41:48;99608.31;;;8.81;64.33
46756;BME280;32506;52.826;-1.192;2023-04-01T04:44:19;99612.00;;;8.80;64.09
46756;BME280;32506;52.826;-1.192;2023-04-01T04:46:45;99616.53;;;8.80;64.05
46756;BME280;32506;52.826;-1.192;2023-04-01T04:49:10;99628.22;;;8.79;64.27
46756;BME280;32506;52.826;-1.192;2023-04-01T04:51:35;99630.03;;;8.78;64.29
46756;BME280;32506;52.826;-1.192;2023-04-01T04:54:02;99635.59;;;8.77;64.12
46756;BME280;32506;52.826;-1.192;2023-04-01T04:56:28;99634.00;;;8.76;64.15
46756;BME280;32506;52.826;-1.192;2023-04-01T04:58:54;99635.03;;;8.75;64.16
46756;BME280;32506;52.826;-1.192;2023-04-01T05:01:19;99638.50;;;8.75;64.11
46756;BME280;32506;52.826;-1.192;2023-04-01T05:03:45;99637.91;;;8.73;64.36
46756;BME280;32506;52.826;-1.192;2023-04-01T05:06:13;99653.06;;;8.72;64.17
46756;BME280;32506;52.826;-1.192;2023-04-01T05:08:39;99654.09;;;8.71;63.98
46756;BME280;32506;52.826;-1.192;2023-04-01T05:11:07;99655.97;;;8.71;64.08
46756;BME280;32506;52.826;-1.192;2023-04-01T05:13:35;99666.84;;;8.69;64.21
46756;BME280;32506;52.826;-1.192;2023-04-01T05:16:01;99668.72;;;8.69;64.50
46756;BME280;32506;52.826;-1.192;2023-04-01T05:18:26;99666.03;;;8.69;64.38
46756;BME280;32506;52.826;-1.192;2023-04-01T05:20:53;99671.56;;;8.67;64.45
46756;BME280;32506;52.826;-1.192;2023-04-01T05:23:19;99681.41;;;8.67;64.28
46756;BME280;32506;52.826;-1.192;2023-04-01T05:25:49;99680.63;;;8.66;64.61
46756;BME280;32506;52.826;-1.192;2023-04-01T05:28:16;99678.16;;;8.65;64.33
46756;BME280;32506;52.826;-1.192;2023-04-01T05:30:43;99679.22;;;8.64;64.23
46756;BME280;32506;52.826;-1.192;2023-04-01T05:33:10;99686.38;;;8.63;64.43
46756;BME280;32506;52.826;-1.192;2023-04-01T05:35:36;99692.53;;;8.64;64.26
46756;BME280;32506;52.826;-1.192;2023-04-01T05:38:02;99695.63;;;8.61;64.30
46756;BME280;32506;52.826;-1.192;2023-04-01T05:40:28;99703.41;;;8.62;64.09
46756;BME280;32506;52.826;-1.192;2023-04-01T05:42:53;99710.78;;;8.60;64.15
46756;BME280;32506;52.826;-1.192;2023-04-01T05:45:19;99710.78;;;8.60;64.02
46756;BME280;32506;52.826;-1.192;2023-04-01T05:47:44;99705.69;;;8.59;64.11
46756;BME280;32506;52.826;-1.192;2023-04-01T05:50:10;99709.38;;;8.57;64.17
46756;BME280;32506;52.826;-1.192;2023-04-01T05:52:36;99709.38;;;8.57;64.14
46756;BME280;32506;52.826;-1.192;2023-04-01T05:55:02;99713.06;;;8.56;64.52
46756;BME280;32506;52.826;-1.192;2023-04-01T05:57:28;99713.06;;;8.56;64.28
46756;BME280;32506;52.826;-1.192;2023-04-01T05:59:53;99718.63;;;8.55;64.33
46756;BME280;32506;52.826;-1.192;2023-04-01T06:02:19;99724.97;;;8.54;64.21
46756;BME280;32506;52.826;-1.192;2023-04-01T06:04:45;99726.63;;;8.55;64.53
46756;BME280;32506;52.826;-1.192;2023-04-01T06:07:14;99729.72;;;8.52;64.47
46756;BME280;32506;52.826;-1.192;2023-04-01T06:09:41;99737.72;;;8.52;64.52
46756;BME280;32506;52.826;-1.192;2023-04-01T06:23:24;99759.47;;;8.49;64.54
46756;BME280;32506;52.826;-1.192;2023-04-01T06:46:05;99791.22;;;8.44;64.54
46756;BME280;32506;52.826;-1.192;2023-04-01T06:49:02;99791.22;;;8.44;64.44
46756;BME280;32506;52.826;-1.192;2023-04-01T06:51:52;99799.44;;;8.42;64.50
46756;BME280;32506;52.826;-1.192;2023-04-01T06:54:26;99803.13;;;8.41;64.64
46756;BME280;32506;52.826;-1.192;2023-04-01T06:56:59;99809.03;;;8.43;64.43
46756;BME280;32506;52.826;-1.192;2023-04-01T06:59:30;99807.44;;;8.42;64.71
46756;BME280;32506;52.826;-1.192;2023-04-01T07:04:47;99820.75;;;8.42;64.66
46756;BME280;32506;52.826;-1.192;2023-04-01T07:09:51;99818.66;;;8.44;64.66
46756;BME280;32506;52.826;-1.192;2023-04-01T07:14:49;99831.97;;;8.44;64.32
46756;BME280;32506;52.826;-1.192;2023-04-01T07:17:27;99828.50;;;8.44;64.40
46756;BME280;32506;52.826;-1.192;2023-04-01T07:22:33;99841.63;;;8.45;64.24
46756;BME280;32506;52.826;-1.192;2023-04-01T07:25:37;99839.56;;;8.47;64.40
46756;BME280;32506;52.826;-1.192;2023-04-01T07:28:06;99838.97;;;8.45;64.17
46756;BME280;32506;52.826;-1.192;2023-04-01T07:36:14;99857.16;;;8.48;64.13
46756;BME280;32506;52.826;-1.192;2023-04-01T07:38:50;99861.47;;;8.49;64.51
46756;BME280;32506;52.826;-1.192;2023-04-01T07:54:57;99888.66;;;8.58;64.89
46756;BME280;32506;52.826;-1.192;2023-04-01T07:58:06;99891.13;;;8.60;65.09
46756;BME280;32506;52.826;-1.192;2023-04-01T08:03:28;99905.19;;;8.67;65.29
46756;BME280;32506;52.826;-1.192;2023-04-01T08:11:21;99908.81;;;8.72;65.34
46756;BME280;32506;52.826;-1.192;2023-04-01T08:16:35;99924.19;;;8.77;65.44
46756;BME280;32506;52.826;-1.192;2023-04-01T08:21:52;99926.41;;;8.80;65.58
46756;BME280;32506;52.826;-1.192;2023-04-01T08:24:34;99923.06;;;8.85;65.63
46756;BME280;32506;52.826;-1.192;2023-04-01T08:27:06;99929.81;;;8.87;65.93
46756;BME280;32506;52.826;-1.192;2023-04-01T08:29:50;99928.56;;;8.90;66.01
46756;BME280;32506;52.826;-1.192;2023-04-01T08:35:29;99940.81;;;8.98;65.99
46756;BME280;32506;52.826;-1.192;2023-04-01T08:38:00;99942.47;;;8.99;65.82
46756;BME280;32506;52.826;-1.192;2023-04-01T08:40:46;99958.63;;;9.04;66.07
46756;BME280;32506;52.826;-1.192;2023-04-01T08:56:42;99970.38;;;9.21;66.48
46756;BME280;32506;52.826;-1.192;2023-04-01T09:07:43;99989.31;;;9.32;66.43
46756;BME280;32506;52.826;-1.192;2023-04-01T09:21:11;100002.75;;;9.44;66.42
46756;BME280;32506;52.826;-1.192;2023-04-01T09:37:53;100021.94;;;9.59;66.38
46756;BME280;32506;52.826;-1.192;2023-04-01T09:40:37;100024.38;;;9.61;66.39
46756;BME280;32506;52.826;-1.192;2023-04-01T09:48:46;100025.34;;;9.66;66.37
46756;BME280;32506;52.826;-1.192;2023-04-01T09:51:39;100029.41;;;9.69;66.49
46756;BME280;32506;52.826;-1.192;2023-04-01T10:25:22;100081.28;;;9.98;66.64
46756;BME280;32506;52.826;-1.192;2023-04-01T10:30:43;100086.56;;;10.05;66.87
46756;BME280;32506;52.826;-1.192;2023-04-01T10:33:38;100096.56;;;10.10;66.96
46756;BME280;32506;52.826;-1.192;2023-04-01T10:36:55;100094.28;;;10.13;67.13
46756;BME280;32506;52.826;-1.192;2023-04-01T10:42:43;100104.06;;;10.19;67.14
46756;BME280;32506;52.826;-1.192;2023-04-01T10:53:40;100118.53;;;10.30;67.04
46756;BME280;32506;52.826;-1.192;2023-04-01T10:59:15;100127.56;;;10.36;66.97
46756;BME280;32506;52.826;-1.192;2023-04-01T11:23:33;100156.19;;;10.66;67.17
46756;BME280;32506;52.826;-1.192;2023-04-01T11:29:09;100159.25;;;10.69;66.74
46756;BME280;32506;52.826;-1.192;2023-04-01T11:46:39;100188.50;;;10.83;66.78
46756;BME280;32506;52.826;-1.192;2023-04-01T11:49:46;100186.19;;;10.86;66.71
46756;BME280;32506;52.826;-1.192;2023-04-01T12:03:47;100218.91;;;11.00;67.15
46756;BME280;32506;52.826;-1.192;2023-04-01T12:09:17;100219.06;;;11.05;67.17
46756;BME280;32506;52.826;-1.192;2023-04-01T12:12:16;100224.75;;;11.09;66.87
46756;BME280;32506;52.826;-1.192;2023-04-01T12:14:54;100231.53;;;11.12;66.84
46756;BME280;32506;52.826;-1.192;2023-04-01T12:17:46;100235.59;;;11.14;66.79
46756;BME280;32506;52.826;-1.192;2023-04-01T12:33:42;100269.41;;;11.27;66.87
46756;BME280;32506;52.826;-1.192;2023-04-01T12:41:53;100270.13;;;11.34;66.80
46756;BME280;32506;52.826;-1.192;2023-04-01T12:47:30;100282.84;;;11.39;66.91
46756;BME280;32506;52.826;-1.192;2023-04-01T12:53:25;100290.81;;;11.46;67.20
46756;BME280;32506;52.826;-1.192;2023-04-01T12:55:55;100294.88;;;11.48;66.90
46756;BME280;32506;52.826;-1.192;2023-04-01T13:11:50;100310.78;;;11.62;66.86
46756;BME280;32506;52.826;-1.192;2023-04-01T13:15:04;100316.47;;;11.65;66.86
46756;BME280;32506;52.826;-1.192;2023-04-01T13:17:41;100325.34;;;11.66;66.63
46756;BME280;32506;52.826;-1.192;2023-04-01T13:25:14;100321.97;;;11.70;66.91
46756;BME280;32506;52.826;-1.192;2023-04-01T13:27:50;100331.41;;;11.73;66.61
46756;BME280;32506;52.826;-1.192;2023-04-01T13:38:56;100345.06;;;11.83;64.94
46756;BME280;32506;52.826;-1.192;2023-04-01T14:04:14;100369.91;;;11.90;65.23
46756;BME280;32506;52.826;-1.192;2023-04-01T14:12:29;100378.53;;;11.92;65.28
46756;BME280;32506;52.826;-1.192;2023-04-01T14:40:33;100415.16;;;12.29;66.73
46756;BME280;32506;52.826;-1.192;2023-04-01T14:45:46;100427.84;;;12.34;66.54
46756;BME280;32506;52.826;-1.192;2023-04-01T14:48:31;100433.81;;;12.36;66.38
46756;BME280;32506;52.826;-1.192;2023-04-01T14:51:08;100434.63;;;12.36;66.41
46756;BME280;32506;52.826;-1.192;2023-04-01T14:53:38;100446.97;;;12.37;66.29
46756;BME280;32506;52.826;-1.192;2023-04-01T14:56:09;100449.44;;;12.39;66.10
46756;BME280;32506;52.826;-1.192;2023-04-01T14:58:47;100454.56;;;12.40;66.08
46756;BME280;32506;52.826;-1.192;2023-04-01T15:03:52;100462.59;;;12.40;65.74
46756;BME280;32506;52.826;-1.192;2023-04-01T15:06:36;100461.56;;;12.41;65.48
46756;BME280;32506;52.826;-1.192;2023-04-01T15:23:39;100483.22;;;12.40;65.09
46756;BME280;32506;52.826;-1.192;2023-04-01T15:26:35;100493.16;;;12.39;65.27
46756;BME280;32506;52.826;-1.192;2023-04-01T15:32:25;100499.09;;;12.41;65.16
46756;BME280;32506;52.826;-1.192;2023-04-01T15:35:01;100506.31;;;12.41;65.27
46756;BME280;32506;52.826;-1.192;2023-04-01T15:37:50;100505.25;;;12.42;65.23
46756;BME280;32506;52.826;-1.192;2023-04-01T15:40:37;100511.44;;;12.42;65.18
46756;BME280;32506;52.826;-1.192;2023-04-01T15:57:40;100552.22;;;12.45;65.22
46756;BME280;32506;52.826;-1.192;2023-04-01T16:08:00;100563.19;;;12.43;64.74
46756;BME280;32506;52.826;-1.192;2023-04-01T16:13:21;100569.56;;;12.42;64.63
46756;BME280;32506;52.826;-1.192;2023-04-01T16:19:22;100582.16;;;12.41;64.61
46756;BME280;32506;52.826;-1.192;2023-04-01T16:21:52;100580.75;;;12.39;64.24
46756;BME280;32506;52.826;-1.192;2023-04-01T16:26:57;100588.22;;;12.37;64.31
46756;BME280;32506;52.826;-1.192;2023-04-01T16:34:58;100594.84;;;12.34;64.45
46756;BME280;32506;52.826;-1.192;2023-04-01T16:37:41;100599.97;;;12.36;64.31
46756;BME280;32506;52.826;-1.192;2023-04-01T16:42:57;100608.00;;;12.36;64.23
46756;BME280;32506;52.826;-1.192;2023-04-01T16:45:35;100618.13;;;12.34;64.36
46756;BME280;32506;52.826;-1.192;2023-04-01T16:48:14;100618.13;;;12.34;64.19
46756;BME280;32506;52.826;-1.192;2023-04-01T16:51:03;100621.88;;;12.33;64.05
46756;BME280;32506;52.826;-1.192;2023-04-01T16:53:45;100629.06;;;12.32;64.09
46756;BME280;32506;52.826;-1.192;2023-04-01T16:56:24;100628.50;;;12.30;64.14
46756;BME280;32506;52.826;-1.192;2023-04-01T17:01:50;100643.97;;;12.28;63.87
46756;BME280;32506;52.826;-1.192;2023-04-01T17:04:41;100647.09;;;12.25;63.90
46756;BME280;32506;52.826;-1.192;2023-04-01T17:24:11;100696.72;;;12.09;63.42
46756;BME280;32506;52.826;-1.192;2023-04-01T17:27:13;100690.72;;;12.07;63.08
46756;BME280;32506;52.826;-1.192;2023-04-01T17:32:46;100712.22;;;12.00;62.84
46756;BME280;32506;52.826;-1.192;2023-04-01T17:35:39;100711.63;;;11.98;63.30
46756;BME280;32506;52.826;-1.192;2023-04-01T17:44:05;100735.38;;;11.88;62.71
46756;BME280;32506;52.826;-1.192;2023-04-01T18:00:23;100775.03;;;11.72;62.95
46756;BME280;32506;52.826;-1.192;2023-04-01T18:06:03;100780.44;;;11.66;62.93
46756;BME280;32506;52.826;-1.192;2023-04-01T18:08:58;100788.06;;;11.62;62.58
46756;BME280;32506;52.826;-1.192;2023-04-01T18:17:25;100804.81;;;11.51;62.90
46756;BME280;32506;52.826;-1.192;2023-04-01T18:22:33;100815.34;;;11.46;62.57
46756;BME280;32506;52.826;-1.192;2023-04-01T18:25:22;100819.25;;;11.43;62.78
46756;BME280;32506;52.826;-1.192;2023-04-01T18:30:40;100842.53;;;11.36;62.96
46756;BME280;32506;52.826;-1.192;2023-04-01T18:33:19;100848.31;;;11.33;62.93
46756;BME280;32506;52.826;-1.192;2023-04-01T18:35:53;100855.91;;;11.29;62.60
46756;BME280;32506;52.826;-1.192;2023-04-01T18:38:34;100853.69;;;11.26;62.78
46756;BME280;32506;52.826;-1.192;2023-04-01T18:41:28;100858.44;;;11.24;62.54
46756;BME280;32506;52.826;-1.192;2023-04-01T18:49:54;100880.69;;;11.11;62.49
46756;BME280;32506;52.826;-1.192;2023-04-01T18:52:33;100884.81;;;11.07;62.72
46756;BME280;32506;52.826;-1.192;2023-04-01T18:57:37;100902.50;;;11.01;62.42
46756;BME280;32506;52.826;-1.192;2023-04-01T19:00:26;100911.78;;;10.99;62.63
46756;BME280;32506;52.826;-1.192;2023-04-01T19:03:15;100910.53;;;10.95;62.76
46756;BME280;32506;52.826;-1.192;2023-04-01T19:05:46;100916.50;;;10.90;62.74
46756;BME280;32506;52.826;-1.192;2023-04-01T19:08:31;100923.06;;;10.87;62.78
46756;BME280;32506;52.826;-1.192;2023-04-01T19:17:03;100938.91;;;10.75;62.46
46756;BME280;32506;52.826;-1.192;2023-04-01T19:19:53;100933.97;;;10.72;62.46
46756;BME280;32506;52.826;-1.192;2023-04-01T19:25:43;100939.94;;;10.68;62.50
46756;BME280;32506;52.826;-1.192;2023-04-01T19:28:20;100953.91;;;10.63;62.57
46756;BME280;32506;52.826;-1.192;2023-04-01T19:30:54;100970.38;;;10.60;62.72
46756;BME280;32506;52.826;-1.192;2023-04-01T19:33:49;100975.91;;;10.58;62.53
46756;BME280;32506;52.826;-1.192;2023-04-01T19:36:35;100972.81;;;10.55;62.50
46756;BME280;32506;52.826;-1.192;2023-04-01T19:41:39;100985.34;;;10.48;62.66
46756;BME280;32506;52.826;-1.192;2023-04-01T19:52:47;100998.28;;;10.37;62.76
46756;BME280;32506;52.826;-1.192;2023-04-01T19:55:36;100998.66;;;10.34;62.75
46756;BME280;32506;52.826;-1.192;2023-04-01T20:00:51;101010.13;;;10.28;62.88
46756;BME280;32506;52.826;-1.192;2023-04-01T20:09:00;101024.31;;;10.22;62.61
46756;BME280;32506;52.826;-1.192;2023-04-01T20:11:55;101023.88;;;10.18;62.59
46756;BME280;32506;52.826;-1.192;2023-04-01T20:14:48;101023.22;;;10.16;62.87
46756;BME280;32506;52.826;-1.192;2023-04-01T20:19:54;101043.75;;;10.09;62.43
46756;BME280;32506;52.826;-1.192;2023-04-01T20:24:59;101051.31;;;10.05;62.69
46756;BME280;32506;52.826;-1.192;2023-04-01T20:27:31;101058.72;;;10.03;63.10
46756;BME280;32506;52.826;-1.192;2023-04-01T20:38:35;101071.41;;;9.95;62.92
46756;BME280;32506;52.826;-1.192;2023-04-01T20:47:00;101092.91;;;9.86;62.83
46756;BME280;32506;52.826;-1.192;2023-04-01T20:50:15;101108.13;;;9.86;62.99
46756;BME280;32506;52.826;-1.192;2023-04-01T20:52:45;101118.34;;;9.82;63.00
46756;BME280;32506;52.826;-1.192;2023-04-01T20:58:23;101115.44;;;9.77;62.98
46756;BME280;32506;52.826;-1.192;2023-04-01T21:11:34;101144.28;;;9.67;63.17
46756;BME280;32506;52.826;-1.192;2023-04-01T21:27:37;101164.31;;;9.56;62.99
46756;BME280;32506;52.826;-1.192;2023-04-01T21:33:11;101169.44;;;9.51;63.21
46756;BME280;32506;52.826;-1.192;2023-04-01T22:01:14;101211.47;;;9.27;63.29
46756;BME280;32506;52.826;-1.192;2023-04-01T22:06:37;101226.00;;;9.24;63.26
46756;BME280;32506;52.826;-1.192;2023-04-01T22:15:20;101234.13;;;9.16;63.27
46756;BME280;32506;52.826;-1.192;2023-04-01T22:23:51;101252.53;;;9.11;63.14
46756;BME280;32506;52.826;-1.192;2023-04-01T22:31:30;101264.75;;;9.05;63.25
46756;BME280;32506;52.826;-1.192;2023-04-01T22:49:38;101282.88;;;8.95;63.12
46756;BME280;32506;52.826;-1.192;2023-04-01T22:52:39;101294.53;;;8.94;63.34
46756;BME280;32506;52.826;-1.192;2023-04-01T22:57:52;101296.78;;;8.90;63.20
46756;BME280;32506;52.826;-1.192;2023-04-01T23:05:41;101314.31;;;8.85;63.30
46756;BME280;32506;52.826;-1.192;2023-04-01T23:10:56;101313.88;;;8.81;63.44
46756;BME280;32506;52.826;-1.192;2023-04-01T23:13:32;101318.34;;;8.81;63.63
46756;BME280;32506;52.826;-1.192;2023-04-01T23:15:59;101323.88;;;8.79;63.38
46756;BME280;32506;52.826;-1.192;2023-04-01T23:21:11;101337.56;;;8.76;63.29
46756;BME280;32506;52.826;-1.192;2023-04-01T23:26:59;101349.22;;;8.75;63.24
46756;BME280;32506;52.826;-1.192;2023-04-01T23:29:26;101354.94;;;8.72;63.55
46756;BME280;32506;52.826;-1.192;2023-04-01T23:32:03;101359.41;;;8.71;63.09
46756;BME280;32506;52.826;-1.192;2023-04-01T23:34:38;101364.94;;;8.70;63.49
46756;BME280;32506;52.826;-1.192;2023-04-01T23:37:07;101362.63;;;8.67;63.68
46756;BME280;32506;52.826;-1.192;2023-04-01T23:39:41;101370.63;;;8.67;63.69
46756;BME280;32506;52.826;-1.192;2023-04-01T23:44:37;101383.28;;;8.65;63.43
46756;BME280;32506;52.826;-1.192;2023-04-01T23:47:05;101394.13;;;8.63;63.67
46756;BME280;32506;52.826;-1.192;2023-04-01T23:49:38;101390.66;;;8.63;63.33
46756;BME280;32506;52.826;-1.192;2023-04-01T23:52:19;101389.19;;;8.60;63.68
46756;BME280;32506;52.826;-1.192;2023-04-01T23:54:53;101397.34;;;8.59;63.46
46756;BME280;32506;52.826;-1.192;2023-04-01T23:57:26;101392.22;;;8.57;63.76
